Dr No — WDJ4022 — position and weather

sailwx.info

Track history (hours):
 
Tides and Currents Weather Stations Pressure Air Temp Water Temp Dewpoint Dewpoint Depression Visibility Wind Speed Wind Dir Waves Ship Positions

Dr No

Owner: DR NO LLC, Ft Laudedale, FL. More information available from US FCC via Universal Licensing System and Coast Guard Vessel Documentation Center.

Last reported at 2018-Feb-18 01:31 UTC. Time now 2018-Feb-18 01:46 UTC.
Position N 25°47' W 080°13'.

; draft 2 m.

Type: Pleasure craft. MMSI: 303558000.

Date/timePositionNaut miles runAvg speedWind from/ knotsBaromVisibWave heightAir tempDewpointWater temp
2018-Feb-18 01:31N 25°47' W 080°13'0 0.0
2018-Feb-18 00:58N 25°47' W 080°13'0 0.1
2018-Feb-18 00:30N 25°47' W 080°13'0 0.0
2018-Feb-18 00:00N 25°47' W 080°13'0 0.1
2018-Feb-17 23:30N 25°47' W 080°13'0 0.1
2018-Feb-17 23:00N 25°47' W 080°13'0 0.0
2018-Feb-17 22:30N 25°47' W 080°13'0 0.0
2018-Feb-17 22:01N 25°47' W 080°13'0 0.0
2018-Feb-17 21:31N 25°47' W 080°13'0 0.0
2018-Feb-17 20:57N 25°47' W 080°13'0 0.0
2018-Feb-17 20:22N 25°47' W 080°13'1 3.6
2018-Feb-17 20:00N 25°46' W 080°12'3 5.6
2018-Feb-17 19:28N 25°46' W 080°08'1 3.3
2018-Feb-17 19:00N 25°46' W 080°10'3 5.6
2018-Feb-17 18:31N 25°43' W 080°11'3 6.7
2018-Feb-17 18:00N 25°40' W 080°11'2 4.5
2018-Feb-17 17:31N 25°39' W 080°09'3 5.7
2018-Feb-17 17:01N 25°41' W 080°12'3 6.9
2018-Feb-17 16:30N 25°44' W 080°11'2 4.1
2018-Feb-17 16:00N 25°46' W 080°09'1 1.8
2018-Feb-17 15:30N 25°47' W 080°09'1 1.7
2018-Feb-17 15:00N 25°46' W 080°08'0 0.7
2018-Feb-17 14:29N 25°46' W 080°09'3 5.4
2018-Feb-17 14:00N 25°46' W 080°12'1 2.8
2018-Feb-17 13:29N 25°47' W 080°13'0 0.1
2018-Feb-17 12:59N 25°47' W 080°13'0 0.1
2018-Feb-17 12:29N 25°47' W 080°13'  
2018-Feb-15 00:22N 25°47' W 080°13'1 1.9
2018-Feb-15 00:00N 25°47' W 080°12'1 1.6
2018-Feb-14 23:26N 25°46' W 080°11'1 3.2
2018-Feb-14 23:00N 25°45' W 080°11'3 6.5
2018-Feb-14 22:30N 25°42' W 080°11'1 0.9
2018-Feb-14 21:56N 25°42' W 080°11'0 0.0
2018-Feb-14 21:23N 25°42' W 080°11'0 0.0
2018-Feb-14 20:53N 25°42' W 080°11'0 0.0
2018-Feb-14 20:29N 25°42' W 080°11'0 0.0
2018-Feb-14 19:53N 25°42' W 080°11'0 0.0
2018-Feb-14 19:26N 25°42' W 080°11'1 2.9
2018-Feb-14 19:00N 25°43' W 080°11'4 7.0
2018-Feb-14 18:30N 25°46' W 080°10'1 3.0
2018-Feb-14 18:00N 25°47' W 080°09'1 1.3
2018-Feb-14 17:30N 25°46' W 080°08'0 0.0
2018-Feb-14 17:00N 25°46' W 080°08'0 0.0
2018-Feb-14 16:30N 25°46' W 080°08'0 0.0
2018-Feb-14 16:00N 25°46' W 080°08'0 0.0
2018-Feb-14 15:30N 25°46' W 080°08'1 2.4
2018-Feb-14 15:01N 25°46' W 080°10'2 4.8
2018-Feb-14 14:30N 25°47' W 080°12'1 1.2
2018-Feb-14 13:59N 25°47' W 080°13'0 0.0
2018-Feb-14 13:29N 25°47' W 080°13'0 0.1
2018-Feb-14 12:59N 25°47' W 080°13'0 0.1
2018-Feb-14 12:29N 25°47' W 080°13'0 0.0
2018-Feb-13 21:46N 25°47' W 080°13'0 0.0
2018-Feb-13 21:25N 25°47' W 080°13'1 1.4
2018-Feb-13 21:00N 25°47' W 080°12'1 2.2
2018-Feb-13 20:30N 25°46' W 080°11'2 4.6
2018-Feb-13 20:00N 25°44' W 080°11'2 3.7
2018-Feb-13 19:27N 25°42' W 080°11'0 0.0
2018-Feb-13 18:56N 25°42' W 080°11'5 0.3
2018-Feb-12 21:37N 25°47' W 080°13'0 0.0
2018-Feb-12 21:28N 25°47' W 080°13'0 0.0
2018-Feb-12 20:58N 25°47' W 080°13'0 0.0
2018-Feb-12 20:22N 25°47' W 080°13'1 1.3
2018-Feb-12 19:59N 25°47' W 080°12'0 0.0
2018-Feb-12 19:29N 25°47' W 080°12'0 0.0
2018-Feb-12 18:59N 25°47' W 080°12'0 0.0
2018-Feb-12 18:29N 25°47' W 080°12'0 0.0
2018-Feb-12 17:59N 25°47' W 080°12'0 0.0
2018-Feb-12 17:29N 25°47' W 080°12'0 0.0
2018-Feb-12 16:59N 25°47' W 080°12'1 2.3
2018-Feb-12 16:27N 25°46' W 080°11'  
2018-Feb-10 11:04N 25°47' W 080°11'0 0.0
2018-Feb-10 10:55N 25°47' W 080°11'0 0.0
2018-Feb-10 10:22N 25°47' W 080°11'0 0.0
2018-Feb-10 09:58N 25°47' W 080°11'0 0.0
2018-Feb-10 09:25N 25°47' W 080°11'0 0.0
2018-Feb-10 08:58N 25°47' W 080°11'0 0.0
2018-Feb-10 08:28N 25°47' W 080°11'0 0.0
2018-Feb-10 07:58N 25°47' W 080°11'0 0.0
2018-Feb-10 07:28N 25°47' W 080°11'0 0.0
2018-Feb-10 06:55N 25°47' W 080°11'0 0.0
2018-Feb-10 06:28N 25°47' W 080°11'0 1.0
2018-Feb-10 06:00N 25°48' W 080°11'4 8.8
2018-Feb-10 05:31N 25°52' W 080°10'4 7.8
2018-Feb-10 05:00N 25°55' W 080°08'0 0.8
2018-Feb-10 04:30N 25°56' W 080°08'0 0.0
2018-Feb-10 04:00N 25°56' W 080°08'0 0.0
2018-Feb-10 03:30N 25°56' W 080°08'0 0.0
2018-Feb-10 02:51N 25°56' W 080°08'0 0.0
2018-Feb-10 02:18N 25°56' W 080°08'0 0.0
2018-Feb-10 01:51N 25°56' W 080°08'0 0.0
2018-Feb-10 01:24N 25°56' W 080°08'0 0.0
2018-Feb-10 00:54N 25°56' W 080°08'0 0.0
2018-Feb-10 00:24N 25°56' W 080°08'0 0.0
2018-Feb-09 23:54N 25°56' W 080°08'0 0.0
2018-Feb-09 23:21N 25°56' W 080°08'0 0.0
2018-Feb-09 22:54N 25°56' W 080°08'0 0.0
2018-Feb-09 22:36N 25°56' W 080°08'2 0.6
2018-Feb-09 20:00N 25°54' W 080°08'  
Track history (hours):
 
Tides and Currents Weather Stations Pressure Air Temp Water Temp Dewpoint Dewpoint Depression Visibility Wind Speed Wind Dir Waves Ship Positions

Dr No

Owner: DR NO LLC, Ft Laudedale, FL. More information available from US FCC via Universal Licensing System and Coast Guard Vessel Documentation Center.

Last reported at 2018-Feb-18 01:31 UTC. Time now 2018-Feb-18 01:46 UTC.
Position N 25°47' W 080°13'.

; draft 2 m.

Type: Pleasure craft. MMSI: 303558000.

Date/timePositionNaut miles runAvg speedWind from/ knotsBaromVisibWave heightAir tempDewpointWater temp
2018-Feb-18 01:31N 25°47' W 080°13'0 0.0
2018-Feb-18 00:58N 25°47' W 080°13'0 0.1
2018-Feb-18 00:30N 25°47' W 080°13'0 0.0
2018-Feb-18 00:00N 25°47' W 080°13'0 0.1
2018-Feb-17 23:30N 25°47' W 080°13'0 0.1
2018-Feb-17 23:00N 25°47' W 080°13'0 0.0
2018-Feb-17 22:30N 25°47' W 080°13'0 0.0
2018-Feb-17 22:01N 25°47' W 080°13'0 0.0
2018-Feb-17 21:31N 25°47' W 080°13'0 0.0
2018-Feb-17 20:57N 25°47' W 080°13'0 0.0
2018-Feb-17 20:22N 25°47' W 080°13'1 3.6
2018-Feb-17 20:00N 25°46' W 080°12'3 5.6
2018-Feb-17 19:28N 25°46' W 080°08'1 3.3
2018-Feb-17 19:00N 25°46' W 080°10'3 5.6
2018-Feb-17 18:31N 25°43' W 080°11'3 6.7
2018-Feb-17 18:00N 25°40' W 080°11'2 4.5
2018-Feb-17 17:31N 25°39' W 080°09'3 5.7
2018-Feb-17 17:01N 25°41' W 080°12'3 6.9
2018-Feb-17 16:30N 25°44' W 080°11'2 4.1
2018-Feb-17 16:00N 25°46' W 080°09'1 1.8
2018-Feb-17 15:30N 25°47' W 080°09'1 1.7
2018-Feb-17 15:00N 25°46' W 080°08'0 0.7
2018-Feb-17 14:29N 25°46' W 080°09'3 5.4
2018-Feb-17 14:00N 25°46' W 080°12'1 2.8
2018-Feb-17 13:29N 25°47' W 080°13'0 0.1
2018-Feb-17 12:59N 25°47' W 080°13'0 0.1
2018-Feb-17 12:29N 25°47' W 080°13'  
2018-Feb-15 00:22N 25°47' W 080°13'1 1.9
2018-Feb-15 00:00N 25°47' W 080°12'1 1.6
2018-Feb-14 23:26N 25°46' W 080°11'1 3.2
2018-Feb-14 23:00N 25°45' W 080°11'3 6.5
2018-Feb-14 22:30N 25°42' W 080°11'1 0.9
2018-Feb-14 21:56N 25°42' W 080°11'0 0.0
2018-Feb-14 21:23N 25°42' W 080°11'0 0.0
2018-Feb-14 20:53N 25°42' W 080°11'0 0.0
2018-Feb-14 20:29N 25°42' W 080°11'0 0.0
2018-Feb-14 19:53N 25°42' W 080°11'0 0.0
2018-Feb-14 19:26N 25°42' W 080°11'1 2.9
2018-Feb-14 19:00N 25°43' W 080°11'4 7.0
2018-Feb-14 18:30N 25°46' W 080°10'1 3.0
2018-Feb-14 18:00N 25°47' W 080°09'1 1.3
2018-Feb-14 17:30N 25°46' W 080°08'0 0.0
2018-Feb-14 17:00N 25°46' W 080°08'0 0.0
2018-Feb-14 16:30N 25°46' W 080°08'0 0.0
2018-Feb-14 16:00N 25°46' W 080°08'0 0.0
2018-Feb-14 15:30N 25°46' W 080°08'1 2.4
2018-Feb-14 15:01N 25°46' W 080°10'2 4.8
2018-Feb-14 14:30N 25°47' W 080°12'1 1.2
2018-Feb-14 13:59N 25°47' W 080°13'0 0.0
2018-Feb-14 13:29N 25°47' W 080°13'0 0.1
2018-Feb-14 12:59N 25°47' W 080°13'0 0.1
2018-Feb-14 12:29N 25°47' W 080°13'0 0.0
2018-Feb-13 21:46N 25°47' W 080°13'0 0.0
2018-Feb-13 21:25N 25°47' W 080°13'1 1.4
2018-Feb-13 21:00N 25°47' W 080°12'1 2.2
2018-Feb-13 20:30N 25°46' W 080°11'2 4.6
2018-Feb-13 20:00N 25°44' W 080°11'2 3.7
2018-Feb-13 19:27N 25°42' W 080°11'0 0.0
2018-Feb-13 18:56N 25°42' W 080°11'5 0.3
2018-Feb-12 21:37N 25°47' W 080°13'0 0.0
2018-Feb-12 21:28N 25°47' W 080°13'0 0.0
2018-Feb-12 20:58N 25°47' W 080°13'0 0.0
2018-Feb-12 20:22N 25°47' W 080°13'1 1.3
2018-Feb-12 19:59N 25°47' W 080°12'0 0.0
2018-Feb-12 19:29N 25°47' W 080°12'0 0.0
2018-Feb-12 18:59N 25°47' W 080°12'0 0.0
2018-Feb-12 18:29N 25°47' W 080°12'0 0.0
2018-Feb-12 17:59N 25°47' W 080°12'0 0.0
2018-Feb-12 17:29N 25°47' W 080°12'0 0.0
2018-Feb-12 16:59N 25°47' W 080°12'1 2.3
2018-Feb-12 16:27N 25°46' W 080°11'  
2018-Feb-10 11:04N 25°47' W 080°11'0 0.0
2018-Feb-10 10:55N 25°47' W 080°11'0 0.0
2018-Feb-10 10:22N 25°47' W 080°11'0 0.0
2018-Feb-10 09:58N 25°47' W 080°11'0 0.0
2018-Feb-10 09:25N 25°47' W 080°11'0 0.0
2018-Feb-10 08:58N 25°47' W 080°11'0 0.0
2018-Feb-10 08:28N 25°47' W 080°11'0 0.0
2018-Feb-10 07:58N 25°47' W 080°11'0 0.0
2018-Feb-10 07:28N 25°47' W 080°11'0 0.0
2018-Feb-10 06:55N 25°47' W 080°11'0 0.0
2018-Feb-10 06:28N 25°47' W 080°11'0 1.0
2018-Feb-10 06:00N 25°48' W 080°11'4 8.8
2018-Feb-10 05:31N 25°52' W 080°10'4 7.8
2018-Feb-10 05:00N 25°55' W 080°08'0 0.8
2018-Feb-10 04:30N 25°56' W 080°08'0 0.0
2018-Feb-10 04:00N 25°56' W 080°08'0 0.0
2018-Feb-10 03:30N 25°56' W 080°08'0 0.0
2018-Feb-10 02:51N 25°56' W 080°08'0 0.0
2018-Feb-10 02:18N 25°56' W 080°08'0 0.0
2018-Feb-10 01:51N 25°56' W 080°08'0 0.0
2018-Feb-10 01:24N 25°56' W 080°08'0 0.0
2018-Feb-10 00:54N 25°56' W 080°08'0 0.0
2018-Feb-10 00:24N 25°56' W 080°08'0 0.0
2018-Feb-09 23:54N 25°56' W 080°08'0 0.0
2018-Feb-09 23:21N 25°56' W 080°08'0 0.0
2018-Feb-09 22:54N 25°56' W 080°08'0 0.0
2018-Feb-09 22:36N 25°56' W 080°08'2 0.6
2018-Feb-09 20:00N 25°54' W 080°08'  

Dump ship's entire track history